createdAt,value
2023-04-24T00:02:22.069Z,13.07
2023-04-24T00:17:25.345Z,13.01
2023-04-24T00:32:28.108Z,13.39
2023-04-24T00:47:31.537Z,13.57
2023-04-24T01:02:35.621Z,13.76
2023-04-24T01:17:39.692Z,14.10
2023-04-24T01:32:45.533Z,14.21
2023-04-24T01:47:50.005Z,14.04
2023-04-24T02:02:53.256Z,13.82
2023-04-24T02:17:56.118Z,13.97
2023-04-24T02:32:59.156Z,13.92
2023-04-24T02:48:01.820Z,14.09
2023-04-24T03:03:04.797Z,13.90
2023-04-24T03:18:07.594Z,13.73
2023-04-24T03:33:10.864Z,14.02
2023-04-24T03:48:13.755Z,14.27
2023-04-24T04:03:17.306Z,14.09
2023-04-24T04:18:20.244Z,13.80
2023-04-24T04:33:23.365Z,13.66
2023-04-24T04:48:25.919Z,14.22
2023-04-24T05:03:28.774Z,15.09
2023-04-24T05:18:31.724Z,16.77
2023-04-24T05:33:34.449Z,20.32
2023-04-24T05:48:37.236Z,20.61
2023-04-24T06:03:40.559Z,19.15
2023-04-24T06:18:43.597Z,18.56
2023-04-24T06:33:46.745Z,18.74
2023-04-24T06:48:49.576Z,18.52
2023-04-24T07:03:52.229Z,17.98
2023-04-24T07:18:54.965Z,17.77
2023-04-24T07:33:59.199Z,18.31
2023-04-24T07:49:12.459Z,20.02
2023-04-24T08:04:16.812Z,20.62
2023-04-24T08:19:19.595Z,20.06
2023-04-24T08:34:22.894Z,19.35
2023-04-24T08:49:26.812Z,19.01
2023-04-24T09:04:31.202Z,20.62
2023-04-24T09:19:34.145Z,22.54
2023-04-24T09:34:36.778Z,24.62
2023-04-24T09:49:40.243Z,26.29
2023-04-24T10:04:55.030Z,26.24
2023-04-24T10:19:59.627Z,25.21
2023-04-24T10:35:02.264Z,23.97
2023-04-24T10:50:11.140Z,23.35
2023-04-24T11:05:16.030Z,23.21
2023-04-24T11:20:27.682Z,22.53
2023-04-24T11:35:36.762Z,22.28
2023-04-24T11:50:40.093Z,22.65
2023-04-24T12:05:43.206Z,22.74
2023-04-24T12:20:46.325Z,21.78
2023-04-24T12:35:54.238Z,20.75
2023-04-24T12:51:02.631Z,20.02
2023-04-24T13:06:06.684Z,19.48
2023-04-24T13:21:09.344Z,18.79
2023-04-24T13:36:12.191Z,18.02
2023-04-24T13:51:15.020Z,17.20
2023-04-24T14:06:18.577Z,16.48
2023-04-24T14:21:21.598Z,16.20
2023-04-24T14:36:24.299Z,16.21
2023-04-24T14:51:28.136Z,16.31
2023-04-24T15:06:32.525Z,16.11
2023-04-24T15:21:37.338Z,15.94
2023-04-24T15:36:39.978Z,16.15
2023-04-24T15:51:42.551Z,15.54
2023-04-24T16:06:45.258Z,14.94
2023-04-24T16:21:47.810Z,14.50
2023-04-24T16:36:50.390Z,14.19
2023-04-24T16:51:53.042Z,14.37
2023-04-24T17:06:55.947Z,15.01
2023-04-24T17:21:59.154Z,15.30
2023-04-24T17:37:02.316Z,15.43
2023-04-24T17:52:06.134Z,15.40
2023-04-24T18:07:08.821Z,15.39
2023-04-24T18:22:11.489Z,15.27
2023-04-24T18:37:14.612Z,15.13
2023-04-24T18:52:17.254Z,15.05
2023-04-24T19:07:20.699Z,15.04
2023-04-24T19:22:24.437Z,15.01
2023-04-24T19:37:27.260Z,14.96
2023-04-24T19:52:29.953Z,14.84
2023-04-24T20:07:32.646Z,14.67
2023-04-24T20:22:38.996Z,14.53
2023-04-24T20:37:42.404Z,14.38
2023-04-24T20:52:50.308Z,14.27
2023-04-24T21:07:56.055Z,14.16
2023-04-24T21:22:58.874Z,14.13
2023-04-24T21:38:02.097Z,14.04
2023-04-24T21:53:04.720Z,13.38
2023-04-24T22:08:07.431Z,12.93
2023-04-24T22:23:10.714Z,12.64
2023-04-24T22:38:13.364Z,11.94
2023-04-24T22:53:16.459Z,11.75
2023-04-24T23:08:19.153Z,11.36
2023-04-24T23:23:21.926Z,10.91
2023-04-24T23:38:24.523Z,10.71
2023-04-24T23:53:27.186Z,10.20
